Time;durP1;ratioP1;P1;durP2;ratioP2;P2;SDS_P1;SDS_P2;PMS_P1;PMS_P2;Temp;Humidity;BMP_temperature;BMP_pressure;BME280_temperature;BME280_humidity;BME280_pressure;Samples;Min_cycle;Max_cycle;Signal;HPM_P1;HPM_P2
2022/03/17 00:01:37;;;;;;;;;5.00;5.00;;;;;14.28;56.62;101900.53;4984017;28;45432;-85
2022/03/17 00:04:02;;;;;;;;;7.67;7.67;;;;;14.55;56.56;101962.97;4977295;28;45503;-86
2022/03/17 00:06:28;;;;;;;;;7.33;7.33;;;;;14.22;56.97;101906.16;4977523;28;45377;-86
2022/03/17 00:08:53;;;;;;;;;8.67;8.00;;;;;13.92;56.67;101858.19;4991540;28;47311;-86
2022/03/17 00:11:18;;;;;;;;;7.00;7.00;;;;;14.20;56.92;101913.38;4990413;27;45436;-86
2022/03/17 00:13:44;;;;;;;;;12.33;9.33;;;;;14.36;56.97;101949.38;4979636;28;45251;-86
2022/03/17 00:16:10;;;;;;;;;10.00;9.00;;;;;14.07;56.65;101904.94;4996697;27;45523;-86
2022/03/17 00:18:36;;;;;;;;;12.33;10.67;;;;;14.22;56.97;101936.53;4993301;27;47114;-86
2022/03/17 00:21:02;;;;;;;;;11.33;10.00;;;;;14.47;56.97;101997.22;4984866;27;45462;-86
2022/03/17 00:23:28;;;;;;;;;10.00;10.00;;;;;14.26;57.21;101956.06;4991902;28;45446;-86
2022/03/17 00:25:53;;;;;;;;;10.67;9.67;;;;;14.46;57.04;102001.72;4975534;28;45749;-86
2022/03/17 00:28:19;;;;;;;;;10.33;10.33;;;;;14.35;57.35;101985.16;4981529;28;46085;-86
2022/03/17 00:30:44;;;;;;;;;14.00;13.00;;;;;13.88;57.42;101910.16;4987895;28;45395;-86
2022/03/17 00:33:09;;;;;;;;;12.67;12.67;;;;;14.23;57.64;101978.47;4987930;28;45417;-86
2022/03/17 00:35:35;;;;;;;;;15.33;12.00;;;;;14.13;57.65;101987.84;4987912;27;45306;-87
2022/03/17 00:38:05;;;;;;;;;14.33;13.33;;;;;14.28;57.83;102006.03;4984086;28;46068;-86
2022/03/17 00:40:30;;;;;;;;;17.00;12.67;;;;;14.07;57.63;101972.88;4994327;28;45428;-86
2022/03/17 00:42:56;;;;;;;;;14.33;14.33;;;;;14.13;58.13;101990.50;4995180;27;45274;-87
2022/03/17 00:45:25;;;;;;;;;12.33;12.00;;;;;13.91;58.04;101956.50;4994826;27;45430;-86
2022/03/17 00:47:50;;;;;;;;;17.00;15.67;;;;;13.90;57.87;101965.44;4994019;27;45398;-86
2022/03/17 00:50:16;;;;;;;;;12.33;12.33;;;;;13.82;57.93;101958.66;4980065;28;45474;-86
2022/03/17 00:52:41;;;;;;;;;14.00;12.67;;;;;13.26;58.11;101869.59;4994606;27;45300;-86
2022/03/17 00:55:07;;;;;;;;;14.00;14.00;;;;;13.89;58.29;101969.06;4991780;28;45568;-85
2022/03/17 00:57:36;;;;;;;;;14.00;14.00;;;;;14.25;58.37;102043.66;4983800;28;46341;-85
2022/03/17 01:00:05;;;;;;;;;15.33;12.67;;;;;14.18;58.37;102043.97;4983971;28;46557;-86
2022/03/17 01:02:31;;;;;;;;;10.00;9.00;;;;;14.24;58.37;102067.88;4984272;28;45373;-86
2022/03/17 01:04:56;;;;;;;;;17.33;14.00;;;;;13.91;58.33;102012.78;4984040;28;45365;-86
2022/03/17 01:07:22;;;;;;;;;15.00;13.67;;;;;14.03;58.71;102027.53;4984641;28;47413;-86
2022/03/17 01:09:47;;;;;;;;;13.67;13.67;;;;;13.84;58.73;101989.81;4983309;28;45329;-86
2022/03/17 01:12:13;;;;;;;;;19.33;16.67;;;;;14.21;58.91;102060.81;4994811;28;45407;-86
2022/03/17 01:14:38;;;;;;;;;15.33;13.33;;;;;13.83;58.80;102022.91;4995256;28;45385;-86
2022/03/17 01:17:04;;;;;;;;;14.33;13.33;;;;;13.82;58.71;102026.53;4994463;28;46269;-86
2022/03/17 01:19:29;;;;;;;;;17.33;16.00;;;;;13.91;58.90;102025.31;4995856;27;45371;-86
2022/03/17 01:21:55;;;;;;;;;15.67;15.00;;;;;13.70;58.80;101995.69;4995757;28;45391;-86
2022/03/17 01:24:20;;;;;;;;;16.67;15.00;;;;;13.51;58.85;101963.34;4996072;27;45393;-85
2022/03/17 01:26:46;;;;;;;;;19.67;14.33;;;;;13.85;58.65;102033.56;4994260;27;46209;-86
2022/03/17 01:29:12;;;;;;;;;13.33;11.00;;;;;14.12;58.71;102069.22;4995581;27;45401;-86
2022/03/17 01:31:38;;;;;;;;;18.67;14.67;;;;;13.67;58.81;102005.63;4995213;28;45396;-86
2022/03/17 01:34:03;;;;;;;;;16.33;14.67;;;;;13.68;59.30;102013.63;4978888;27;45540;-86
2022/03/17 01:36:29;;;;;;;;;20.33;19.00;;;;;13.37;59.51;101971.00;4991281;28;45445;-86
2022/03/17 01:38:55;;;;;;;;;20.33;15.00;;;;;13.66;59.18;102023.50;4982269;28;46228;-86
2022/03/17 01:41:20;;;;;;;;;21.33;17.00;;;;;13.69;59.41;102028.75;4983066;27;45699;-86
2022/03/17 01:43:46;;;;;;;;;24.33;17.67;;;;;13.86;59.33;102056.75;4975740;28;45445;-86
2022/03/17 01:46:14;;;;;;;;;19.33;18.00;;;;;13.95;59.58;102083.22;4975335;28;45656;-85
2022/03/17 01:48:40;;;;;;;;;17.67;15.67;;;;;13.73;59.14;102037.56;4980278;28;45338;-87
2022/03/17 01:51:05;;;;;;;;;23.67;17.67;;;;;13.85;59.36;102055.88;4986053;27;45407;-86
2022/03/17 01:53:31;;;;;;;;;14.67;12.33;;;;;13.59;59.32;102013.09;4980026;28;45531;-86
2022/03/17 01:55:58;;;;;;;;;12.00;12.00;;;;;14.03;59.37;102099.03;4993757;27;48485;-86
2022/03/17 01:58:24;;;;;;;;;16.33;15.00;;;;;13.81;59.67;102070.31;4994562;28;45345;-86
2022/03/17 02:00:50;;;;;;;;;16.33;15.00;;;;;13.97;59.22;102107.28;4994626;27;45355;-86
2022/03/17 02:03:16;;;;;;;;;17.33;15.00;;;;;13.98;59.13;102109.03;4993360;27;45603;-85
2022/03/17 02:05:43;;;;;;;;;16.67;15.33;;;;;13.76;59.34;102066.94;4994990;27;46238;-86
2022/03/17 02:08:10;;;;;;;;;12.67;12.67;;;;;13.98;59.53;102120.66;4977787;28;45406;-86
2022/03/17 02:13:20;;;;;;;;;16.33;14.67;;;;;13.95;59.01;102107.34;4984843;27;45331;-85
2022/03/17 02:15:50;;;;;;;;;17.67;15.67;;;;;14.02;59.29;102129.44;4988994;28;45374;-85
2022/03/17 02:18:16;;;;;;;;;18.67;13.67;;;;;13.96;59.35;102130.56;4992720;27;45642;-86
2022/03/17 02:20:42;;;;;;;;;15.00;15.00;;;;;13.73;59.25;102101.88;4974319;28;45560;-86
2022/03/17 02:26:01;;;;;;;;;18.67;15.33;;;;;13.81;59.17;102129.25;4975418;28;45591;-86
2022/03/17 02:28:28;;;;;;;;;14.00;12.33;;;;;13.70;59.15;102112.72;4975271;28;45469;-86
2022/03/17 02:30:54;;;;;;;;;16.33;14.33;;;;;13.62;59.03;102099.56;4975277;28;45416;-86
2022/03/17 02:33:20;;;;;;;;;17.00;15.50;;;;;13.66;58.98;102111.06;4977993;28;45502;-86
2022/03/17 02:35:49;;;;;;;;;16.67;14.33;;;;;13.88;59.24;102159.41;4980077;28;47884;-85
2022/03/17 02:38:15;;;;;;;;;15.67;15.67;;;;;13.93;59.13;102155.66;4990922;27;45326;-86
2022/03/17 02:40:44;;;;;;;;;16.67;12.33;;;;;13.57;59.27;102106.03;4979116;28;45658;-85
2022/03/17 02:43:11;;;;;;;;;16.33;16.33;;;;;13.91;59.39;102162.00;4993501;27;45331;-86
2022/03/17 02:45:37;;;;;;;;;17.67;15.00;;;;;13.91;59.06;102156.66;4993869;27;46421;-85
2022/03/17 02:48:04;;;;;;;;;16.67;13.33;;;;;13.54;59.17;102106.13;4985726;28;45325;-85
2022/03/17 02:50:30;;;;;;;;;15.00;15.00;;;;;13.84;59.37;102169.38;4993623;27;45445;-85
2022/03/17 02:52:56;;;;;;;;;18.00;14.67;;;;;13.89;58.86;102183.50;4994471;28;45378;-86
2022/03/17 02:55:22;;;;;;;;;18.67;17.67;;;;;13.86;59.07;102174.66;4986387;27;46533;-85
2022/03/17 02:57:48;;;;;;;;;17.00;15.00;;;;;13.60;59.24;102140.72;4974734;28;45461;-85
2022/03/17 03:00:14;;;;;;;;;16.00;16.00;;;;;13.67;59.27;102153.00;4974867;28;45515;-85
2022/03/17 03:02:40;;;;;;;;;15.33;15.33;;;;;12.67;59.17;101987.63;4984665;28;45437;-86
2022/03/17 03:05:07;;;;;;;;;17.00;16.00;;;;;13.78;59.12;102182.97;4973323;28;48217;-86
2022/03/17 03:07:33;;;;;;;;;13.67;13.67;;;;;12.98;59.70;102065.09;4984710;28;45417;-85
2022/03/17 03:09:58;;;;;;;;;15.33;15.33;;;;;13.69;59.29;102189.50;4980528;28;45320;-86
2022/03/17 03:12:24;;;;;;;;;17.67;15.67;;;;;13.74;59.26;102200.09;4991087;27;45236;-86
2022/03/17 03:14:50;;;;;;;;;17.00;15.00;;;;;13.43;59.30;102147.53;4987889;28;47104;-85
2022/03/17 03:17:16;;;;;;;;;16.33;15.33;;;;;13.48;59.04;102160.78;4982476;28;45238;-86
2022/03/17 03:19:41;;;;;;;;;12.00;10.67;;;;;13.03;58.97;102089.91;4982209;27;45541;-85
2022/03/17 03:22:07;;;;;;;;;13.67;11.67;;;;;13.72;58.65;102220.72;4974970;28;45416;-86
2022/03/17 03:24:33;;;;;;;;;11.33;11.33;;;;;13.26;58.39;102141.84;4972978;28;47130;-85
2022/03/17 03:26:59;;;;;;;;;14.67;14.67;;;;;13.67;58.18;102217.28;4973460;28;45896;-86
2022/03/17 03:29:25;;;;;;;;;16.33;16.00;;;;;13.60;58.25;102215.75;4974131;28;45610;-86
2022/03/17 03:31:56;;;;;;;;;14.00;14.00;;;;;13.29;58.26;102164.03;4974421;28;45537;-86
2022/03/17 03:34:24;;;;;;;;;17.33;14.33;;;;;13.55;58.12;102223.94;4987863;28;45693;-85
2022/03/17 03:39:35;;;;;;;;;16.33;12.00;;;;;13.44;58.19;102239.50;4996383;27;45343;-86
2022/03/17 03:42:01;;;;;;;;;16.00;14.33;;;;;13.30;57.75;102216.69;4982741;27;45265;-86
2022/03/17 03:44:26;;;;;;;;;15.33;15.33;;;;;13.27;57.90;102221.22;4977127;28;45550;-86
2022/03/17 03:46:52;;;;;;;;;14.33;14.33;;;;;13.34;57.57;102254.06;4983395;27;45380;-86
2022/03/17 03:49:18;;;;;;;;;15.33;13.33;;;;;13.17;57.70;102225.13;4997283;27;45585;-86
2022/03/17 03:51:44;;;;;;;;;9.00;9.00;;;;;12.93;57.24;102191.97;4997288;27;45587;-86
2022/03/17 03:54:13;;;;;;;;;11.33;11.33;;;;;12.81;57.27;102195.88;4984785;27;45556;-86
2022/03/17 03:56:39;;;;;;;;;10.33;10.33;;;;;13.10;57.19;102257.41;4977105;28;45352;-86
2022/03/17 03:59:08;;;;;;;;;10.33;10.33;;;;;12.68;56.45;102188.19;4977419;28;45392;-86
2022/03/17 04:01:34;;;;;;;;;13.00;9.67;;;;;12.28;56.01;102124.28;4977492;28;45310;-86
2022/03/17 04:04:01;;;;;;;;;7.33;5.67;;;;;13.17;55.77;102289.38;4984145;27;46327;-86
2022/03/17 04:06:26;;;;;;;;;8.00;8.00;;;;;12.68;55.72;102216.75;4995714;27;45367;-86
2022/03/17 04:08:52;;;;;;;;;7.67;5.67;;;;;12.75;55.72;102234.38;4996851;28;45361;-86
2022/03/17 04:11:17;;;;;;;;;7.67;7.67;;;;;12.71;55.73;102232.69;4997459;28;45403;-86
2022/03/17 04:13:42;;;;;;;;;9.67;7.67;;;;;12.83;55.64;102277.84;4996401;27;45428;-86
2022/03/17 04:16:08;;;;;;;;;7.67;7.67;;;;;12.75;55.42;102265.59;4997093;28;45433;-86
2022/03/17 04:18:34;;;;;;;;;10.00;10.00;;;;;12.53;55.58;102234.13;4995508;27;45365;-86
2022/03/17 04:20:59;;;;;;;;;9.00;8.33;;;;;12.60;55.78;102250.88;4996901;27;45317;-86
2022/03/17 04:23:25;;;;;;;;;9.33;7.67;;;;;12.71;55.86;102280.84;4995531;28;46876;-86
2022/03/17 04:25:50;;;;;;;;;11.00;8.33;;;;;12.58;55.98;102272.31;4996630;27;45384;-86
2022/03/17 04:28:16;;;;;;;;;8.33;8.33;;;;;12.38;56.06;102234.53;4996613;28;49030;-86
2022/03/17 04:30:41;;;;;;;;;8.33;8.33;;;;;12.67;56.16;102298.81;4996537;27;45301;-86
2022/03/17 04:33:06;;;;;;;;;9.67;8.00;;;;;12.88;55.92;102344.63;4995633;28;48873;-86
2022/03/17 04:35:31;;;;;;;;;7.00;7.00;;;;;12.86;55.82;102333.97;4982871;27;55789;-86
2022/03/17 04:37:57;;;;;;;;;6.67;6.67;;;;;12.77;55.74;102323.50;4977297;28;45198;-86
2022/03/17 04:40:23;;;;;;;;;5.67;5.67;;;;;12.84;56.31;102343.81;4978285;28;45328;-85
2022/03/17 04:42:48;;;;;;;;;8.67;6.67;;;;;12.67;55.71;102316.66;4977724;28;46148;-85
2022/03/17 04:45:14;;;;;;;;;9.67;7.67;;;;;12.64;55.85;102325.66;4976758;28;45235;-85
2022/03/17 04:47:39;;;;;;;;;10.00;8.00;;;;;12.86;55.82;102371.41;4981016;27;45326;-85
2022/03/17 04:50:06;;;;;;;;;7.00;5.00;;;;;12.29;55.77;102274.88;4985077;28;45505;-85
2022/03/17 04:55:15;;;;;;;;;8.67;8.67;;;;;12.89;55.96;102378.47;4976568;28;45452;-85
2022/03/17 04:57:40;;;;;;;;;7.67;6.33;;;;;12.65;55.97;102330.06;4976712;28;45388;-85
2022/03/17 05:00:06;;;;;;;;;7.33;7.33;;;;;12.88;55.81;102390.13;4993215;28;45457;-85
2022/03/17 05:02:32;;;;;;;;;5.67;5.67;;;;;12.42;55.77;102317.28;4975302;28;46661;-85
2022/03/17 05:04:57;;;;;;;;;12.33;8.33;;;;;12.25;56.00;102287.47;4976449;28;45437;-85
2022/03/17 05:07:22;;;;;;;;;5.33;5.33;;;;;12.78;55.68;102378.78;4976877;28;45470;-85
2022/03/17 05:09:47;;;;;;;;;7.67;7.67;;;;;12.72;55.83;102376.25;4976601;28;45591;-85
2022/03/17 05:12:13;;;;;;;;;8.67;6.00;;;;;12.59;55.70;102358.78;4976360;28;53234;-85
2022/03/17 05:14:38;;;;;;;;;8.67;6.67;;;;;12.71;55.35;102392.34;4975759;28;45420;-85
2022/03/17 05:17:03;;;;;;;;;8.33;6.33;;;;;12.77;55.71;102411.81;4978350;28;45405;-85
2022/03/17 05:19:29;;;;;;;;;7.67;6.33;;;;;12.63;56.01;102389.88;4996542;28;45383;-85
2022/03/17 05:21:54;;;;;;;;;7.67;5.33;;;;;12.52;55.61;102375.91;4994336;27;48640;-85
2022/03/17 05:24:19;;;;;;;;;7.33;6.00;;;;;12.73;56.06;102426.16;4994753;28;45448;-85
2022/03/17 05:26:45;;;;;;;;;7.67;7.67;;;;;12.49;55.69;102389.34;4996016;27;45380;-85
2022/03/17 05:29:12;;;;;;;;;7.00;7.00;;;;;12.16;56.18;102342.03;4990170;28;45423;-85
2022/03/17 05:31:37;;;;;;;;;7.00;7.00;;;;;12.67;56.29;102435.25;4987140;28;45988;-85
2022/03/17 05:34:03;;;;;;;;;7.67;6.33;;;;;12.00;55.93;102330.81;4977686;28;46094;-85
2022/03/17 05:36:29;;;;;;;;;7.33;6.33;;;;;12.28;56.21;102377.41;4989461;28;45368;-85
2022/03/17 05:38:54;;;;;;;;;9.67;8.00;;;;;12.56;55.90;102437.31;4984479;28;45368;-85
2022/03/17 05:41:20;;;;;;;;;7.33;6.33;;;;;12.40;56.06;102414.53;4982488;28;45970;-85
2022/03/17 05:43:46;;;;;;;;;7.67;6.33;;;;;12.35;56.10;102416.44;4986973;28;45381;-85
2022/03/17 05:46:11;;;;;;;;;7.33;7.33;;;;;11.60;56.18;102302.34;4977229;28;47533;-85
2022/03/17 05:48:38;;;;;;;;;7.67;6.67;;;;;12.36;56.08;102429.78;4976314;28;45454;-85
2022/03/17 05:51:04;;;;;;;;;7.00;6.67;;;;;11.96;55.88;102374.59;4988881;27;46442;-85
2022/03/17 05:53:29;;;;;;;;;4.33;4.33;;;;;12.39;56.04;102443.06;4981492;27;45401;-85
2022/03/17 05:55:54;;;;;;;;;7.67;5.00;;;;;11.52;56.23;102303.44;4975659;28;45390;-85
2022/03/17 05:58:20;;;;;;;;;9.00;8.33;;;;;12.41;56.11;102465.31;4978313;28;45345;-85
2022/03/17 06:00:45;;;;;;;;;6.67;6.67;;;;;12.24;55.75;102440.75;4975580;28;45346;-85
2022/03/17 06:03:10;;;;;;;;;7.00;6.00;;;;;11.99;56.01;102406.56;4979605;28;46030;-84
2022/03/17 06:05:36;;;;;;;;;6.33;6.33;;;;;12.48;56.19;102495.47;4975783;28;45346;-84
2022/03/17 06:08:01;;;;;;;;;8.67;6.67;;;;;12.01;55.91;102422.56;4992108;28;45439;-84
2022/03/17 06:10:33;;;;;;;;;7.67;6.00;;;;;12.45;56.21;102499.09;4985345;28;45444;-85
2022/03/17 06:13:00;;;;;;;;;6.33;6.33;;;;;12.45;56.03;102514.22;4975144;28;45832;-84
2022/03/17 06:15:27;;;;;;;;;7.67;7.67;;;;;12.44;55.90;102512.50;4983543;27;45368;-83
2022/03/17 06:17:57;;;;;;;;;5.67;5.33;;;;;12.42;55.71;102522.34;4991710;27;45383;-83
2022/03/17 06:20:28;;;;;;;;;3.00;3.00;;;;;11.76;55.18;102417.75;4979115;28;46429;-83
2022/03/17 06:22:56;;;;;;;;;7.00;7.00;;;;;12.42;55.22;102530.34;4986193;28;45587;-83
2022/03/17 06:25:24;;;;;;;;;4.33;4.00;;;;;11.55;54.74;102404.84;4986972;28;45388;-83
2022/03/17 06:27:50;;;;;;;;;5.67;5.00;;;;;12.25;54.58;102522.72;4993707;27;45831;-83
2022/03/17 06:30:18;;;;;;;;;2.67;2.67;;;;;11.73;54.27;102438.28;4976621;28;46404;-83
2022/03/17 06:32:44;;;;;;;;;5.00;5.00;;;;;12.37;53.76;102559.00;4981416;27;45447;-83
2022/03/17 06:35:14;;;;;;;;;4.67;3.33;;;;;12.37;53.93;102565.22;4980619;28;45763;-83
2022/03/17 06:37:40;;;;;;;;;3.33;3.33;;;;;11.47;53.42;102414.81;4997268;27;45366;-84
2022/03/17 06:40:06;;;;;;;;;3.00;3.00;;;;;11.72;52.86;102464.13;5028932;27;45439;-84
2022/03/17 06:42:32;;;;;;;;;4.00;4.00;;;;;11.84;53.02;102489.69;4982643;27;45343;-84
2022/03/17 06:44:58;;;;;;;;;5.33;5.33;;;;;12.39;52.79;102586.59;5002460;28;45397;-86
2022/03/17 06:47:24;;;;;;;;;5.33;5.33;;;;;12.37;52.83;102591.97;4981901;28;45761;-85
2022/03/17 06:49:50;;;;;;;;;6.67;4.67;;;;;12.41;52.55;102598.16;4977353;28;45682;-85
2022/03/17 06:52:15;;;;;;;;;7.67;4.00;;;;;11.48;52.44;102443.28;4974639;28;45382;-85
2022/03/17 06:54:40;;;;;;;;;4.67;4.33;;;;;12.40;52.44;102602.59;4985286;27;45643;-86
2022/03/17 06:57:06;;;;;;;;;3.33;3.33;;;;;11.97;52.52;102528.66;4980999;27;45651;-86
2022/03/17 06:59:32;;;;;;;;;5.67;5.67;;;;;12.47;52.46;102614.03;4995632;27;47365;-86
2022/03/17 07:01:57;;;;;;;;;5.00;4.67;;;;;12.48;52.70;102623.84;4980919;28;45573;-86
2022/03/17 07:04:22;;;;;;;;;6.00;6.00;;;;;12.31;52.35;102591.22;4985786;28;45424;-86
2022/03/17 07:06:48;;;;;;;;;7.00;6.00;;;;;12.28;52.52;102578.78;4993040;28;45334;-87
2022/03/17 07:09:13;;;;;;;;;4.00;4.00;;;;;12.53;52.46;102621.06;4995063;27;46229;-86
2022/03/17 07:11:39;;;;;;;;;7.33;7.33;;;;;12.17;52.58;102560.28;4985573;28;45344;-86
2022/03/17 07:14:04;;;;;;;;;6.67;6.67;;;;;12.37;52.11;102601.78;4986514;28;45353;-85
2022/03/17 07:16:30;;;;;;;;;6.33;6.33;;;;;12.34;52.33;102601.81;4977573;28;45445;-86
2022/03/17 07:18:55;;;;;;;;;9.00;6.67;;;;;12.31;52.56;102596.56;4983115;28;46632;-86
2022/03/17 07:21:21;;;;;;;;;6.00;5.33;;;;;11.95;52.57;102526.94;4978660;27;46083;-85
2022/03/17 07:23:46;;;;;;;;;10.00;7.00;;;;;12.43;52.17;102617.69;4977110;28;45635;-83
2022/03/17 07:26:11;;;;;;;;;7.00;5.67;;;;;12.62;52.26;102648.50;4986822;28;45619;-82
2022/03/17 07:28:36;;;;;;;;;6.50;6.50;;;;;12.13;52.05;102573.78;4984457;28;59150;-84
2022/03/17 07:31:02;;;;;;;;;7.33;6.33;;;;;12.30;51.98;102606.38;4984898;28;45395;-87
2022/03/17 07:33:27;;;;;;;;;9.00;5.67;;;;;12.28;52.10;102601.97;5000994;27;45708;-83
2022/03/17 07:35:53;;;;;;;;;5.67;5.67;;;;;12.48;51.91;102638.97;5003000;28;45442;-82
2022/03/17 07:38:19;;;;;;;;;8.00;7.67;;;;;12.64;52.19;102668.06;5075721;27;46062;-81
2022/03/17 07:40:46;;;;;;;;;8.00;7.67;;;;;12.66;52.18;102673.38;5011245;27;45336;-83
2022/03/17 07:43:12;;;;;;;;;6.67;4.00;;;;;12.39;51.96;102626.72;4996499;28;45335;-83
2022/03/17 07:45:40;;;;;;;;;10.33;7.67;;;;;11.93;51.93;102544.78;5016593;28;45578;-88
2022/03/17 07:48:06;;;;;;;;;22.00;19.33;;;;;12.67;52.05;102684.03;4982652;28;47516;-83
2022/03/17 07:50:34;;;;;;;;;30.00;25.67;;;;;12.68;51.87;102680.44;4986844;27;45349;-81
2022/03/17 07:53:00;;;;;;;;;7.00;7.00;;;;;12.71;51.61;102684.84;5007398;28;45416;-82
2022/03/17 07:55:27;;;;;;;;;3.67;3.00;;;;;12.53;51.93;102661.19;5027628;27;45588;-85
2022/03/17 07:57:52;;;;;;;;;6.67;6.67;;;;;12.55;51.64;102673.63;4995441;27;45787;-82
2022/03/17 08:00:18;;;;;;;;;8.33;8.33;;;;;12.36;51.88;102626.75;5005376;27;45329;-83
2022/03/17 08:02:43;;;;;;;;;6.67;4.67;;;;;12.35;51.29;102630.34;4979842;27;45541;-83
2022/03/17 08:05:18;;;;;;;;;8.33;5.33;;;;;12.66;51.70;102686.75;4994505;28;45504;-83
2022/03/17 08:07:43;;;;;;;;;11.67;8.00;;;;;12.31;51.61;102623.28;4998138;28;46885;-81
2022/03/17 08:10:09;;;;;;;;;5.67;5.67;;;;;12.46;51.83;102652.41;4986448;28;45389;-82
2022/03/17 08:12:35;;;;;;;;;8.00;6.33;;;;;12.78;51.47;102712.34;4991824;27;45448;-81
2022/03/17 08:15:01;;;;;;;;;7.33;7.00;;;;;12.54;51.57;102685.22;4996886;27;45668;-81
2022/03/17 08:17:27;;;;;;;;;10.33;8.00;;;;;12.47;51.13;102670.19;5013147;27;45710;-80
2022/03/17 08:19:53;;;;;;;;;8.00;6.00;;;;;12.73;51.31;102715.13;4996653;28;45446;-80
2022/03/17 08:22:19;;;;;;;;;12.33;12.33;;;;;12.52;51.36;102681.69;4989847;27;45543;-83
2022/03/17 08:24:44;;;;;;;;;9.33;7.33;;;;;12.36;51.33;102657.06;4995293;27;45230;-86
2022/03/17 08:27:09;;;;;;;;;7.33;7.33;;;;;12.25;51.35;102645.69;4986461;28;45439;-84
2022/03/17 08:29:34;;;;;;;;;32.33;27.00;;;;;12.91;51.32;102745.97;5049897;27;45414;-82
2022/03/17 08:32:00;;;;;;;;;14.00;12.67;;;;;12.85;51.35;102738.97;5100180;27;45430;-82
2022/03/17 08:34:26;;;;;;;;;8.33;8.33;;;;;12.78;50.84;102733.75;5036125;27;45489;-83
2022/03/17 08:36:56;;;;;;;;;25.33;22.33;;;;;12.82;50.79;102744.38;5002614;27;45419;-82
2022/03/17 08:39:22;;;;;;;;;21.67;17.33;;;;;12.96;50.53;102765.50;4999424;27;45344;-82
2022/03/17 08:41:47;;;;;;;;;9.00;8.00;;;;;12.74;50.48;102732.09;5035078;27;45464;-83
2022/03/17 08:44:12;;;;;;;;;6.67;6.00;;;;;13.02;50.35;102776.09;4995926;28;45365;-85
2022/03/17 08:49:24;;;;;;;;;20.00;17.00;;;;;12.69;49.93;102734.84;5015714;28;45454;-86
2022/03/17 08:51:52;;;;;;;;;15.33;11.00;;;;;12.57;49.82;102702.97;5015986;28;45451;-85
2022/03/17 08:54:24;;;;;;;;;21.00;14.33;;;;;13.09;50.10;102800.94;5016136;28;45459;-84
2022/03/17 08:56:51;;;;;;;;;12.00;10.67;;;;;13.04;50.04;102792.09;5015531;28;46148;-84
2022/03/17 08:59:17;;;;;;;;;8.00;6.33;;;;;12.97;49.23;102780.66;5016020;28;45230;-85
2022/03/17 09:01:43;;;;;;;;;7.00;7.00;;;;;13.19;49.86;102815.00;5013894;28;45424;-85
2022/03/17 09:04:08;;;;;;;;;5.33;3.67;;;;;12.96;49.03;102775.31;4989730;27;45520;-84
2022/03/17 09:06:35;;;;;;;;;6.33;6.33;;;;;12.74;48.78;102738.31;5008173;28;45703;-84
2022/03/17 09:09:01;;;;;;;;;8.33;8.33;;;;;12.75;49.27;102734.72;4975293;28;45393;-85
2022/03/17 09:11:26;;;;;;;;;10.00;7.67;;;;;12.82;49.46;102759.56;4976285;28;45353;-89
2022/03/17 09:13:52;;;;;;;;;10.00;8.33;;;;;13.05;49.21;102791.19;4974879;28;45483;-82
2022/03/17 09:16:17;;;;;;;;;8.67;7.00;;;;;13.31;49.26;102830.84;5003433;28;45379;-81
2022/03/17 09:18:42;;;;;;;;;9.67;5.33;;;;;13.21;48.78;102792.63;5084233;27;45479;-81
2022/03/17 09:21:09;;;;;;;;;5.33;5.33;;;;;13.36;48.89;102825.38;5033900;27;45452;-81
2022/03/17 09:23:35;;;;;;;;;8.33;6.67;;;;;13.24;48.84;102805.06;5072962;27;45396;-82
2022/03/17 09:26:01;;;;;;;;;7.67;5.33;;;;;13.17;49.11;102803.44;4995780;27;45359;-82
2022/03/17 09:28:27;;;;;;;;;7.00;3.00;;;;;13.12;48.80;102789.28;4995674;28;45360;-82
2022/03/17 09:30:56;;;;;;;;;7.00;6.67;;;;;13.10;48.96;102794.66;5023831;27;45554;-82
2022/03/17 09:33:25;;;;;;;;;7.67;7.00;;;;;13.19;48.93;102821.22;5072356;27;45425;-82
2022/03/17 09:35:53;;;;;;;;;8.33;6.33;;;;;13.37;48.79;102848.56;5014677;28;46199;-84
2022/03/17 09:38:19;;;;;;;;;11.00;9.00;;;;;13.40;49.01;102853.88;5074649;27;45454;-82
2022/03/17 09:40:45;;;;;;;;;9.67;5.67;;;;;13.33;49.19;102841.53;5023935;27;45414;-83
2022/03/17 09:43:20;;;;;;;;;7.67;7.00;;;;;13.45;48.79;102865.34;5015762;28;45587;-83
2022/03/17 09:45:51;;;;;;;;;6.33;6.33;;;;;13.41;48.74;102850.25;5055164;27;45454;-83
2022/03/17 09:48:21;;;;;;;;;6.33;5.33;;;;;13.41;48.53;102837.75;4975337;28;45459;-83
2022/03/17 09:50:47;;;;;;;;;7.00;6.67;;;;;13.61;48.45;102857.88;5017022;27;45615;-83
2022/03/17 09:53:13;;;;;;;;;7.00;7.00;;;;;13.65;48.04;102863.13;5066864;27;45321;-82
2022/03/17 09:55:43;;;;;;;;;5.33;5.33;;;;;13.70;48.07;102860.34;5014382;28;46012;-82
2022/03/17 09:58:10;;;;;;;;;10.33;8.33;;;;;13.57;47.86;102832.06;5014800;28;45455;-83
2022/03/17 10:00:47;;;;;;;;;9.33;5.00;;;;;13.81;47.70;102868.13;5023214;27;45323;-83
2022/03/17 10:03:17;;;;;;;;;9.67;6.00;;;;;13.72;47.65;102853.16;5000293;28;45478;-82
2022/03/17 10:05:48;;;;;;;;;5.00;4.00;;;;;13.66;47.46;102839.88;5003116;27;46063;-82
2022/03/17 10:08:14;;;;;;;;;7.33;7.00;;;;;13.90;48.15;102879.50;5070763;27;45368;-83
2022/03/17 10:10:42;;;;;;;;;7.33;5.67;;;;;13.93;47.39;102875.91;5026163;27;45388;-83
2022/03/17 10:13:18;;;;;;;;;7.67;7.67;;;;;13.94;47.10;102874.97;5033052;27;45562;-83
2022/03/17 10:16:04;;;;;;;;;7.00;7.00;;;;;13.93;47.12;102879.44;5097386;27;45495;-83
2022/03/17 10:18:33;;;;;;;;;10.33;8.00;;;;;13.98;47.06;102882.03;5023410;27;45472;-83
2022/03/17 10:21:27;;;;;;;;;12.33;10.00;;;;;14.01;47.15;102878.38;5013921;28;45799;-83
2022/03/17 10:24:04;;;;;;;;;9.00;5.33;;;;;14.05;46.82;102886.31;5057446;27;45354;-82
2022/03/17 10:26:29;;;;;;;;;5.33;4.00;;;;;14.07;46.97;102879.13;5021568;27;46578;-82
2022/03/17 10:29:24;;;;;;;;;5.00;5.00;;;;;13.68;46.13;102825.53;5023829;27;45459;-82
2022/03/17 10:31:58;;;;;;;;;9.67;7.33;;;;;14.08;46.12;102896.97;5051366;27;45569;-82
2022/03/17 10:34:29;;;;;;;;;6.33;6.00;;;;;14.12;46.24;102903.16;4994819;28;45315;-82
2022/03/17 10:37:13;;;;;;;;;6.67;5.33;;;;;13.54;46.39;102805.34;5010172;27;45606;-83
2022/03/17 10:39:46;;;;;;;;;8.67;8.00;;;;;13.90;46.45;102874.13;5002546;27;45538;-82
2022/03/17 10:42:16;;;;;;;;;9.00;6.67;;;;;14.10;46.34;102913.91;5068151;27;45300;-82
2022/03/17 10:44:46;;;;;;;;;6.33;6.33;;;;;13.93;46.40;102886.63;5028237;27;45297;-82
2022/03/17 10:47:11;;;;;;;;;8.33;8.33;;;;;13.89;46.14;102877.75;5075190;27;46512;-82
2022/03/17 10:49:37;;;;;;;;;12.33;10.00;;;;;14.11;46.33;102910.28;5049052;27;45965;-81
2022/03/17 10:52:03;;;;;;;;;6.33;4.33;;;;;14.10;46.01;102902.31;5097739;27;45511;-82
2022/03/17 10:54:29;;;;;;;;;5.67;4.00;;;;;13.90;46.23;102865.22;5097572;27;45941;-82
2022/03/17 10:57:06;;;;;;;;;10.33;6.67;;;;;14.23;45.97;102922.53;5007804;27;50846;-82
2022/03/17 10:59:38;;;;;;;;;11.33;9.67;;;;;14.25;45.92;102923.38;5013671;28;45333;-82
2022/03/17 11:02:08;;;;;;;;;8.00;6.00;;;;;14.06;45.62;102890.75;5040865;27;45641;-84
2022/03/17 11:04:35;;;;;;;;;5.33;5.33;;;;;14.27;46.29;102921.53;5033314;27;45423;-82
2022/03/17 11:07:04;;;;;;;;;7.67;6.00;;;;;14.09;45.81;102879.06;4973809;28;45303;-82
2022/03/17 11:09:30;;;;;;;;;9.33;7.33;;;;;14.32;45.81;102924.13;4988770;28;45346;-81
2022/03/17 11:11:56;;;;;;;;;6.33;6.33;;;;;14.14;45.94;102899.50;4994904;28;45549;-81
2022/03/17 11:14:23;;;;;;;;;9.33;8.00;;;;;13.97;46.28;102882.94;4992723;27;45691;-82
2022/03/17 11:16:50;;;;;;;;;8.33;7.33;;;;;14.08;45.68;102914.88;4988955;28;45692;-81
2022/03/17 11:19:17;;;;;;;;;6.67;6.67;;;;;14.26;45.96;102945.75;5036283;27;45339;-82
2022/03/17 11:21:50;;;;;;;;;10.67;7.00;;;;;14.26;45.97;102941.25;5058096;27;45377;-82
2022/03/17 11:24:20;;;;;;;;;7.33;7.33;;;;;14.30;46.49;102948.28;5013646;28;45312;-82
2022/03/17 11:26:46;;;;;;;;;6.33;6.33;;;;;14.26;45.58;102918.91;4998955;28;46135;-82
2022/03/17 11:29:21;;;;;;;;;5.00;5.00;;;;;14.36;45.38;102944.59;5033981;27;45427;-81
2022/03/17 11:31:56;;;;;;;;;5.00;5.00;;;;;14.41;45.21;102956.09;5055865;27;45412;-82